createdAt,value
2022-08-05T00:01:35.908Z,16.81
2022-08-05T00:04:15.497Z,16.81
2022-08-05T00:06:43.264Z,16.81
2022-08-05T00:09:12.916Z,16.76
2022-08-05T00:11:48.411Z,16.75
2022-08-05T00:14:17.473Z,16.79
2022-08-05T00:16:53.400Z,16.78
2022-08-05T00:19:24.853Z,16.79
2022-08-05T00:22:00.214Z,16.75
2022-08-05T00:24:31.240Z,16.81
2022-08-05T00:26:59.223Z,16.81
2022-08-05T00:29:27.653Z,16.78
2022-08-05T00:32:12.301Z,16.75
2022-08-05T00:35:03.424Z,16.74
2022-08-05T00:37:50.695Z,16.73
2022-08-05T00:40:27.439Z,16.71
2022-08-05T00:42:57.993Z,16.69
2022-08-05T00:45:38.091Z,16.67
2022-08-05T00:48:18.649Z,16.66
2022-08-05T00:50:58.200Z,16.61
2022-08-05T00:54:00.224Z,16.54
2022-08-05T00:56:14.920Z,16.46
2022-08-05T00:58:45.105Z,16.40
2022-08-05T01:01:12.995Z,16.38
2022-08-05T01:03:40.015Z,16.38
2022-08-05T01:06:11.154Z,16.41
2022-08-05T01:08:44.497Z,16.39
2022-08-05T01:11:22.464Z,16.33
2022-08-05T01:14:28.307Z,16.33
2022-08-05T01:17:39.886Z,16.48
2022-08-05T01:20:37.045Z,16.58
2022-08-05T01:23:23.742Z,16.65
2022-08-05T01:26:13.039Z,16.75
2022-08-05T01:29:25.132Z,16.80
2022-08-05T01:31:54.772Z,16.80
2022-08-05T01:34:43.837Z,16.84
2022-08-05T01:37:25.097Z,16.82
2022-08-05T01:39:58.699Z,16.84
2022-08-05T01:42:27.833Z,16.86
2022-08-05T01:44:59.868Z,16.90
2022-08-05T01:47:38.915Z,16.93
2022-08-05T01:50:15.052Z,16.95
2022-08-05T01:52:50.059Z,16.99
2022-08-05T01:55:20.125Z,17.00
2022-08-05T01:58:10.036Z,17.01
2022-08-05T02:00:39.704Z,17.02
2022-08-05T02:03:28.945Z,16.98
2022-08-05T02:06:03.520Z,16.96
2022-08-05T02:08:58.281Z,16.97
2022-08-05T02:11:33.122Z,16.97
2022-08-05T02:14:17.874Z,16.94
2022-08-05T02:16:47.251Z,16.85
2022-08-05T02:19:35.017Z,16.84
2022-08-05T02:22:26.443Z,16.83
2022-08-05T02:25:03.126Z,16.84
2022-08-05T02:27:58.479Z,16.78
2022-08-05T02:30:26.978Z,16.76
2022-08-05T02:32:57.995Z,16.77
2022-08-05T02:35:37.423Z,16.68
2022-08-05T02:38:09.229Z,16.69
2022-08-05T02:40:41.075Z,16.65
2022-08-05T02:43:09.389Z,16.58
2022-08-05T02:45:52.912Z,16.61
2022-08-05T02:48:29.418Z,16.55
2022-08-05T02:51:01.363Z,16.48
2022-08-05T02:53:39.438Z,16.44
2022-08-05T02:56:15.672Z,16.40
2022-08-05T02:58:51.639Z,16.39
2022-08-05T03:01:27.478Z,16.44
2022-08-05T03:04:02.155Z,16.47
2022-08-05T03:06:55.755Z,16.55
2022-08-05T03:09:36.045Z,16.61
2022-08-05T03:12:05.612Z,16.61
2022-08-05T03:14:32.928Z,16.60
2022-08-05T03:17:00.271Z,16.65
2022-08-05T03:19:34.230Z,16.65
2022-08-05T03:22:05.136Z,16.68
2022-08-05T03:24:47.034Z,16.69
2022-08-05T03:27:14.724Z,16.71
2022-08-05T03:30:07.185Z,16.75
2022-08-05T03:32:32.770Z,16.75
2022-08-05T03:35:00.777Z,16.77
2022-08-05T03:37:27.779Z,16.75
2022-08-05T03:40:01.518Z,16.77
2022-08-05T03:42:32.811Z,16.74
2022-08-05T03:45:21.030Z,16.72
2022-08-05T03:47:49.991Z,16.70
2022-08-05T03:50:16.871Z,16.67
2022-08-05T03:55:06.866Z,16.63
2022-08-05T03:56:18.055Z,16.57
2022-08-05T03:59:00.009Z,16.49
2022-08-05T04:01:32.318Z,16.43
2022-08-05T04:04:09.723Z,16.42
2022-08-05T04:06:38.435Z,16.45
2022-08-05T04:09:20.312Z,16.45
2022-08-05T04:11:53.233Z,16.42
2022-08-05T04:14:29.994Z,16.39
2022-08-05T04:17:00.213Z,16.33
2022-08-05T04:19:28.728Z,16.28
2022-08-05T04:22:08.748Z,16.24
2022-08-05T04:24:52.419Z,16.22
2022-08-05T04:27:41.703Z,16.21
2022-08-05T04:30:08.918Z,16.18
2022-08-05T04:32:35.949Z,16.19
2022-08-05T04:35:04.676Z,16.19
2022-08-05T04:38:01.208Z,16.18
2022-08-05T04:40:19.870Z,16.20
2022-08-05T04:42:46.683Z,16.21
2022-08-05T04:45:14.169Z,16.21
2022-08-05T04:47:49.816Z,16.23
2022-08-05T04:50:34.402Z,16.28
2022-08-05T04:53:04.472Z,16.31
2022-08-05T04:56:15.557Z,16.33
2022-08-05T04:58:21.602Z,16.38
2022-08-05T05:00:50.706Z,16.43
2022-08-05T05:03:20.273Z,16.52
2022-08-05T05:06:36.190Z,16.59
2022-08-05T05:08:37.349Z,16.71
2022-08-05T05:11:10.538Z,16.77
2022-08-05T05:13:43.243Z,16.87
2022-08-05T05:16:10.705Z,16.95
2022-08-05T05:18:38.965Z,17.01
2022-08-05T05:21:05.973Z,17.08
2022-08-05T05:24:01.824Z,17.14
2022-08-05T05:26:19.797Z,17.16
2022-08-05T05:28:55.667Z,17.20
2022-08-05T05:31:23.957Z,17.22
2022-08-05T05:33:59.543Z,17.25
2022-08-05T05:36:29.952Z,17.23
2022-08-05T05:38:57.808Z,17.21
2022-08-05T05:41:25.055Z,17.16
2022-08-05T05:44:27.019Z,17.13
2022-08-05T05:46:53.624Z,17.12
2022-08-05T05:49:23.005Z,17.10
2022-08-05T05:51:50.615Z,17.07
2022-08-05T05:54:17.768Z,17.05
2022-08-05T05:56:47.375Z,17.05
2022-08-05T05:59:14.322Z,17.08
2022-08-05T06:01:57.792Z,17.08
2022-08-05T06:04:25.101Z,17.04
2022-08-05T06:06:52.160Z,17.12
2022-08-05T06:09:26.607Z,17.38
2022-08-05T06:12:06.488Z,17.72
2022-08-05T06:14:36.756Z,17.90
2022-08-05T06:17:21.990Z,18.12
2022-08-05T06:19:57.028Z,18.67
2022-08-05T06:22:34.045Z,19.69
2022-08-05T06:25:24.672Z,20.02
2022-08-05T06:28:10.541Z,19.93
2022-08-05T06:30:36.072Z,19.74
2022-08-05T06:33:02.939Z,19.65
2022-08-05T06:36:08.025Z,19.46
2022-08-05T06:38:17.521Z,19.11
2022-08-05T06:41:03.879Z,18.96
2022-08-05T06:43:57.440Z,18.87
2022-08-05T06:46:18.501Z,19.33
2022-08-05T06:48:56.235Z,19.90
2022-08-05T06:51:29.794Z,20.87
2022-08-05T06:54:02.782Z,22.05
2022-08-05T06:56:34.190Z,22.84
2022-08-05T06:59:03.999Z,23.59
2022-08-05T07:01:36.896Z,22.95
2022-08-05T07:04:04.159Z,22.43
2022-08-05T07:06:31.814Z,22.22
2022-08-05T07:08:59.607Z,22.43
2022-08-05T07:11:31.155Z,22.41
2022-08-05T07:14:20.689Z,22.33
2022-08-05T07:18:01.761Z,22.51
2022-08-05T07:20:31.396Z,22.60
2022-08-05T07:22:35.558Z,22.59
2022-08-05T07:25:22.994Z,23.73
2022-08-05T07:27:57.195Z,25.04
2022-08-05T07:30:32.119Z,25.54
2022-08-05T07:33:00.888Z,25.63
2022-08-05T07:36:03.458Z,25.16
2022-08-05T07:38:32.835Z,25.09
2022-08-05T07:42:09.648Z,24.97
2022-08-05T07:43:56.293Z,24.46
2022-08-05T07:46:26.157Z,23.74
2022-08-05T07:49:02.628Z,23.93
2022-08-05T07:51:36.949Z,24.10
2022-08-05T07:54:08.502Z,23.75
2022-08-05T07:56:59.969Z,23.94
2022-08-05T07:59:38.716Z,24.59
2022-08-05T08:02:15.403Z,25.08
2022-08-05T08:04:48.698Z,25.37
2022-08-05T08:07:22.450Z,26.01
2022-08-05T08:09:52.535Z,27.52
2022-08-05T08:12:35.584Z,26.23
2022-08-05T08:15:09.659Z,26.42
2022-08-05T08:17:46.252Z,26.37
2022-08-05T08:20:44.353Z,27.63
2022-08-05T08:23:59.809Z,27.03
2022-08-05T08:26:02.401Z,27.55
2022-08-05T08:28:36.293Z,26.66
2022-08-05T08:31:09.838Z,25.82
2022-08-05T08:33:41.841Z,24.96
2022-08-05T08:36:39.213Z,25.19
2022-08-05T08:38:57.509Z,24.97
2022-08-05T08:41:52.479Z,24.09
2022-08-05T08:45:22.445Z,23.42
2022-08-05T08:47:21.693Z,23.02
2022-08-05T08:50:05.915Z,22.36
2022-08-05T08:52:51.806Z,22.01
2022-08-05T08:56:02.492Z,22.74
2022-08-05T08:58:09.943Z,24.09
2022-08-05T09:00:40.606Z,25.06
2022-08-05T09:03:09.789Z,25.85
2022-08-05T09:05:38.719Z,25.94
2022-08-05T09:08:27.265Z,26.68
2022-08-05T09:10:57.457Z,27.51
2022-08-05T09:13:24.607Z,28.31
2022-08-05T09:15:58.362Z,28.03
2022-08-05T09:18:25.741Z,26.55
2022-08-05T09:20:52.464Z,25.32
2022-08-05T09:23:23.447Z,24.18
2022-08-05T09:26:15.854Z,23.06
2022-08-05T09:28:48.406Z,23.35
2022-08-05T09:31:43.899Z,24.48
2022-08-05T09:34:06.495Z,26.04
2022-08-05T09:36:54.194Z,27.25
2022-08-05T09:39:27.709Z,26.38
2022-08-05T09:42:11.434Z,25.47
2022-08-05T09:44:50.536Z,25.30
2022-08-05T09:47:20.844Z,25.28
2022-08-05T09:50:00.436Z,25.80
2022-08-05T09:52:31.336Z,25.63
2022-08-05T09:55:57.947Z,24.93
2022-08-05T09:57:58.603Z,23.74
2022-08-05T10:00:26.744Z,25.02
2022-08-05T10:02:55.084Z,26.58
2022-08-05T10:05:27.770Z,27.23
2022-08-05T10:08:35.704Z,27.18
2022-08-05T10:10:45.275Z,27.65
2022-08-05T10:13:27.489Z,28.32
2022-08-05T10:16:37.965Z,28.00
2022-08-05T10:19:23.746Z,28.47
2022-08-05T10:22:09.091Z,28.79
2022-08-05T10:24:42.962Z,28.82
2022-08-05T10:27:14.960Z,29.17
2022-08-05T10:30:07.260Z,28.59
2022-08-05T10:32:51.907Z,28.97
2022-08-05T10:35:19.400Z,28.91
2022-08-05T10:37:47.150Z,29.15
2022-08-05T10:40:45.010Z,29.96
2022-08-05T10:43:35.870Z,29.25
2022-08-05T10:46:08.155Z,28.76
2022-08-05T10:48:57.302Z,29.34
2022-08-05T10:51:28.946Z,29.64
2022-08-05T10:54:01.877Z,29.53
2022-08-05T10:56:49.453Z,29.49
2022-08-05T11:00:02.189Z,28.55
2022-08-05T11:02:37.717Z,29.12
2022-08-05T11:05:10.431Z,28.72
2022-08-05T11:08:02.967Z,28.96
2022-08-05T11:10:38.406Z,28.93
2022-08-05T11:13:54.819Z,28.92
2022-08-05T11:16:33.776Z,29.20
2022-08-05T11:20:10.965Z,28.87
2022-08-05T11:22:42.379Z,28.62
2022-08-05T11:26:05.212Z,27.64
2022-08-05T11:28:24.352Z,28.10
2022-08-05T11:31:06.151Z,27.76
2022-08-05T11:33:46.653Z,29.01
2022-08-05T11:36:34.578Z,28.92
2022-08-05T11:39:06.914Z,27.81
2022-08-05T11:42:00.776Z,25.41
2022-08-05T11:44:53.287Z,24.78
2022-08-05T11:47:15.172Z,26.96
2022-08-05T11:50:00.517Z,26.28
2022-08-05T11:52:31.025Z,27.33
2022-08-05T11:54:59.381Z,27.23
2022-08-05T11:57:39.321Z,27.87
2022-08-05T12:00:30.380Z,27.39
2022-08-05T12:02:57.650Z,26.86
2022-08-05T12:05:36.382Z,26.11
2022-08-05T12:08:11.736Z,26.00
2022-08-05T12:10:46.623Z,26.52
2022-08-05T12:13:27.624Z,26.89
2022-08-05T12:16:14.923Z,27.26
2022-08-05T12:18:49.593Z,28.27
2022-08-05T12:21:32.530Z,28.09
2022-08-05T12:24:10.795Z,28.32
2022-08-05T12:26:52.815Z,27.60
2022-08-05T12:29:22.946Z,27.12
2022-08-05T12:31:53.414Z,27.37
2022-08-05T12:34:25.734Z,27.51
2022-08-05T12:36:53.614Z,27.61
2022-08-05T12:39:21.428Z,28.01
2022-08-05T12:41:48.919Z,27.86
2022-08-05T12:44:32.601Z,27.83
2022-08-05T12:47:02.706Z,27.93
2022-08-05T12:50:05.001Z,27.08
2022-08-05T12:52:39.760Z,26.84
2022-08-05T12:55:25.322Z,26.07
2022-08-05T12:58:49.099Z,25.05
2022-08-05T13:02:02.844Z,23.82
2022-08-05T13:03:32.281Z,24.09
2022-08-05T13:06:02.747Z,25.46
2022-08-05T13:08:32.444Z,25.26
2022-08-05T13:11:01.361Z,25.21
2022-08-05T13:14:06.685Z,24.49
2022-08-05T13:16:17.116Z,22.41
2022-08-05T13:18:57.911Z,21.81
2022-08-05T13:21:28.178Z,21.37
2022-08-05T13:23:55.696Z,21.17
2022-08-05T13:26:30.246Z,21.62
2022-08-05T13:28:59.158Z,21.91
2022-08-05T13:31:34.034Z,21.52
2022-08-05T13:34:24.148Z,22.04
2022-08-05T13:36:53.193Z,24.84
2022-08-05T13:40:13.080Z,25.26
2022-08-05T13:42:07.592Z,24.86
2022-08-05T13:44:46.263Z,23.99
2022-08-05T13:47:35.086Z,24.16
2022-08-05T13:50:04.578Z,26.13
2022-08-05T13:52:35.512Z,24.93
2022-08-05T13:55:07.641Z,24.43
2022-08-05T13:57:50.851Z,22.39
2022-08-05T14:00:19.652Z,21.67
2022-08-05T14:02:54.216Z,21.64
2022-08-05T14:05:48.359Z,21.43
2022-08-05T14:08:19.894Z,21.36
2022-08-05T14:10:48.464Z,20.74
2022-08-05T14:13:15.623Z,21.08
2022-08-05T14:16:07.159Z,21.01
2022-08-05T14:18:29.474Z,21.29
2022-08-05T14:20:56.217Z,20.82
2022-08-05T14:23:25.831Z,21.89
2022-08-05T14:25:57.956Z,24.38
2022-08-05T14:28:28.757Z,25.67
2022-08-05T14:30:57.408Z,24.98
2022-08-05T14:33:24.437Z,23.95
2022-08-05T14:35:53.935Z,22.90
2022-08-05T14:38:27.761Z,21.81
2022-08-05T14:41:05.618Z,21.69
2022-08-05T14:44:02.361Z,21.37
2022-08-05T14:46:28.741Z,21.92
2022-08-05T14:48:58.956Z,22.10
2022-08-05T14:51:30.645Z,23.48
2022-08-05T14:54:27.121Z,25.65
2022-08-05T14:56:46.843Z,24.08
2022-08-05T14:59:14.827Z,26.34
2022-08-05T15:01:48.529Z,27.70
2022-08-05T15:04:17.159Z,28.98
2022-08-05T15:06:49.426Z,28.75
2022-08-05T15:09:50.561Z,28.50
2022-08-05T15:12:05.791Z,28.83
2022-08-05T15:14:34.595Z,28.64
2022-08-05T15:17:45.030Z,28.88
2022-08-05T15:19:57.400Z,29.05
2022-08-05T15:22:26.921Z,28.28
2022-08-05T15:24:55.527Z,28.20
2022-08-05T15:27:22.456Z,27.98
2022-08-05T15:29:56.699Z,28.53
2022-08-05T15:32:27.099Z,28.82
2022-08-05T15:34:56.610Z,27.13
2022-08-05T15:38:08.385Z,27.73
2022-08-05T15:41:00.101Z,27.43
2022-08-05T15:43:09.192Z,27.21
2022-08-05T15:45:45.703Z,25.96
2022-08-05T15:48:14.324Z,25.09
2022-08-05T15:50:43.868Z,24.34
2022-08-05T15:53:13.607Z,23.10
2022-08-05T15:56:02.818Z,22.15
2022-08-05T15:58:29.293Z,21.80
2022-08-05T16:01:11.919Z,21.55
2022-08-05T16:03:43.619Z,21.55
2022-08-05T16:06:11.396Z,21.39
2022-08-05T16:08:38.734Z,20.91
2022-08-05T16:11:08.012Z,20.67
2022-08-05T16:13:35.391Z,20.46
2022-08-05T16:16:05.939Z,20.43
2022-08-05T16:18:33.120Z,20.38
2022-08-05T16:21:04.216Z,20.31
2022-08-05T16:23:33.122Z,20.24
2022-08-05T16:26:19.102Z,20.07
2022-08-05T16:28:54.497Z,19.77
2022-08-05T16:31:22.102Z,19.73
2022-08-05T16:33:49.899Z,19.57
2022-08-05T16:36:20.516Z,19.73
2022-08-05T16:38:54.953Z,19.79
2022-08-05T16:42:27.782Z,19.65
2022-08-05T16:44:11.553Z,19.62
2022-08-05T16:46:41.147Z,19.42
2022-08-05T16:49:10.125Z,19.44
2022-08-05T16:51:42.778Z,19.45
2022-08-05T16:54:25.726Z,19.21
2022-08-05T16:56:54.223Z,19.06
2022-08-05T16:59:21.034Z,18.83
2022-08-05T17:01:53.956Z,18.66
2022-08-05T17:04:27.376Z,18.65
2022-08-05T17:07:01.165Z,18.49
2022-08-05T17:09:57.495Z,18.39
2022-08-05T17:12:22.776Z,18.19
2022-08-05T17:15:06.177Z,18.04
2022-08-05T17:17:42.306Z,18.13
2022-08-05T17:20:14.675Z,17.92
2022-08-05T17:22:41.806Z,17.88
2022-08-05T17:25:22.135Z,17.68
2022-08-05T17:27:56.164Z,17.63
2022-08-05T17:30:28.147Z,17.54
2022-08-05T17:32:55.541Z,17.46
2022-08-05T17:35:22.417Z,17.40
2022-08-05T17:37:50.483Z,17.38
2022-08-05T17:40:22.308Z,17.33
2022-08-05T17:42:51.996Z,17.32
2022-08-05T17:45:22.921Z,17.23
2022-08-05T17:47:55.030Z,17.18
2022-08-05T17:50:28.406Z,17.15
2022-08-05T17:53:01.353Z,17.13
2022-08-05T17:55:37.686Z,17.16
2022-08-05T17:58:11.026Z,17.05
2022-08-05T18:00:45.338Z,16.99
2022-08-05T18:06:11.474Z,16.95
2022-08-05T18:08:52.412Z,16.86
2022-08-05T18:11:24.793Z,16.86
2022-08-05T18:14:01.230Z,16.80
2022-08-05T18:16:30.926Z,16.74
2022-08-05T18:18:57.736Z,16.59
2022-08-05T18:21:26.092Z,16.59
2022-08-05T18:23:54.197Z,16.53
2022-08-05T18:26:29.593Z,16.47
2022-08-05T18:28:59.820Z,16.40
2022-08-05T18:31:33.817Z,16.29
2022-08-05T18:34:06.190Z,16.27
2022-08-05T18:36:38.916Z,16.21
2022-08-05T18:39:09.764Z,16.19
2022-08-05T18:42:06.294Z,16.16
2022-08-05T18:44:49.280Z,16.15
2022-08-05T18:47:22.691Z,16.06
2022-08-05T18:50:42.186Z,15.95
2022-08-05T18:53:19.170Z,15.88
2022-08-05T18:55:49.686Z,15.77
2022-08-05T18:58:16.650Z,15.64
2022-08-05T19:00:43.667Z,15.54
2022-08-05T19:03:14.918Z,15.44
2022-08-05T19:06:13.613Z,15.32
2022-08-05T19:08:30.935Z,15.13
2022-08-05T19:10:59.418Z,15.06
2022-08-05T19:13:29.551Z,14.90
2022-08-05T19:16:04.077Z,14.73
2022-08-05T19:18:31.922Z,14.63
2022-08-05T19:20:59.648Z,14.49
2022-08-05T19:24:07.034Z,14.39
2022-08-05T19:26:13.993Z,14.31
2022-08-05T19:28:44.141Z,14.25
2022-08-05T19:31:13.359Z,14.18
2022-08-05T19:33:48.470Z,14.12
2022-08-05T19:36:24.467Z,14.03
2022-08-05T19:38:51.351Z,13.94
2022-08-05T19:41:22.197Z,13.83
2022-08-05T19:44:12.918Z,13.76
2022-08-05T19:46:40.948Z,13.70
2022-08-05T19:49:12.530Z,13.61
2022-08-05T19:52:05.301Z,13.54
2022-08-05T19:54:32.918Z,13.50
2022-08-05T19:57:06.669Z,13.47
2022-08-05T19:59:55.306Z,13.45
2022-08-05T20:02:30.365Z,13.53
2022-08-05T20:04:59.621Z,13.60
2022-08-05T20:07:48.701Z,13.66
2022-08-05T20:10:17.403Z,13.72
2022-08-05T20:12:49.318Z,13.77
2022-08-05T20:15:48.892Z,13.87
2022-08-05T20:18:10.569Z,14.01
2022-08-05T20:20:57.032Z,14.16
2022-08-05T20:23:40.450Z,14.24
2022-08-05T20:26:16.248Z,14.24
2022-08-05T20:28:48.804Z,14.21
2022-08-05T20:31:16.974Z,14.12
2022-08-05T20:33:45.195Z,13.99
2022-08-05T20:36:14.366Z,13.93
2022-08-05T20:38:54.141Z,13.84
2022-08-05T20:41:27.346Z,13.80
2022-08-05T20:44:17.551Z,13.88
2022-08-05T20:46:47.585Z,13.95
2022-08-05T20:49:14.951Z,14.02
2022-08-05T20:51:53.646Z,14.06
2022-08-05T20:54:21.208Z,13.96
2022-08-05T20:56:49.076Z,13.85
2022-08-05T20:59:26.248Z,13.71
2022-08-05T21:01:53.210Z,13.53
2022-08-05T21:04:19.949Z,13.42
2022-08-05T21:06:46.786Z,13.34
2022-08-05T21:09:14.996Z,13.24
2022-08-05T21:12:09.345Z,13.14
2022-08-05T21:14:35.264Z,13.10
2022-08-05T21:17:05.253Z,13.06
2022-08-05T21:19:46.977Z,13.01
2022-08-05T21:22:18.438Z,12.96
2022-08-05T21:24:51.866Z,12.92
2022-08-05T21:27:25.269Z,12.87
2022-08-05T21:29:57.589Z,12.81
2022-08-05T21:32:27.140Z,12.78
2022-08-05T21:35:08.643Z,12.70
2022-08-05T21:37:42.714Z,12.63
2022-08-05T21:40:14.477Z,12.51
2022-08-05T21:42:44.157Z,12.46
2022-08-05T21:45:12.097Z,12.39
2022-08-05T21:47:56.953Z,12.30
2022-08-05T21:50:26.526Z,12.23
2022-08-05T21:52:58.970Z,12.19
2022-08-05T21:56:01.278Z,12.14
2022-08-05T21:58:19.400Z,12.12
2022-08-05T22:00:51.176Z,12.13
2022-08-05T22:03:18.398Z,12.11
2022-08-05T22:06:06.311Z,12.02
2022-08-05T22:08:35.105Z,11.99
2022-08-05T22:11:01.863Z,11.94
2022-08-05T22:14:34.437Z,11.93
2022-08-05T22:16:42.148Z,11.93
2022-08-05T22:20:00.389Z,11.89
2022-08-05T22:22:02.438Z,11.86
2022-08-05T22:24:51.768Z,11.83
2022-08-05T22:28:09.915Z,11.73
2022-08-05T22:30:24.785Z,11.66
2022-08-05T22:32:59.637Z,11.61
2022-08-05T22:35:26.496Z,11.55
2022-08-05T22:38:05.596Z,11.49
2022-08-05T22:40:32.607Z,11.46
2022-08-05T22:42:59.858Z,11.43
2022-08-05T22:45:27.161Z,11.43
2022-08-05T22:47:57.979Z,11.40
2022-08-05T22:50:27.765Z,11.40
2022-08-05T22:52:55.139Z,11.40
2022-08-05T22:55:23.449Z,11.38
2022-08-05T22:57:52.038Z,11.36
2022-08-05T23:00:21.530Z,11.34
2022-08-05T23:02:49.891Z,11.29
2022-08-05T23:05:18.373Z,11.26
2022-08-05T23:07:48.887Z,11.24
2022-08-05T23:10:19.663Z,11.26
2022-08-05T23:12:54.385Z,11.26
2022-08-05T23:15:27.080Z,11.25
2022-08-05T23:18:02.434Z,11.24
2022-08-05T23:20:33.166Z,11.24
2022-08-05T23:23:03.476Z,11.24
2022-08-05T23:25:52.816Z,11.23
2022-08-05T23:28:19.910Z,11.24
2022-08-05T23:30:53.322Z,11.23
2022-08-05T23:33:25.595Z,11.17
2022-08-05T23:36:06.190Z,11.13
2022-08-05T23:38:36.810Z,11.08
2022-08-05T23:41:03.568Z,11.03
2022-08-05T23:43:37.370Z,11.00
2022-08-05T23:46:19.855Z,10.93
2022-08-05T23:49:00.973Z,10.91
2022-08-05T23:51:52.858Z,10.95
2022-08-05T23:54:25.271Z,10.89
2022-08-05T23:56:54.117Z,10.84
2022-08-05T23:59:20.881Z,10.81
